createdAt,value
2022-10-19T00:00:43.276Z,5.00
2022-10-19T00:03:16.417Z,5.53
2022-10-19T00:05:47.581Z,6.08
2022-10-19T00:08:18.721Z,4.62
2022-10-19T00:10:50.296Z,6.40
2022-10-19T00:13:21.530Z,6.62
2022-10-19T00:15:52.853Z,5.83
2022-10-19T00:18:24.465Z,5.17
2022-10-19T00:21:03.649Z,6.00
2022-10-19T00:23:35.185Z,4.90
2022-10-19T00:26:06.981Z,6.05
2022-10-19T00:28:38.685Z,5.12
2022-10-19T00:31:13.517Z,10.23
2022-10-19T00:33:46.898Z,5.78
2022-10-19T00:36:20.605Z,7.70
2022-10-19T00:38:53.009Z,5.60
2022-10-19T00:41:26.355Z,5.78
2022-10-19T00:44:03.648Z,4.65
2022-10-19T00:46:38.072Z,5.25
2022-10-19T00:49:12.330Z,6.47
2022-10-19T00:51:46.169Z,4.70
2022-10-19T00:54:18.546Z,5.20
2022-10-19T00:56:54.002Z,5.67
2022-10-19T00:59:27.097Z,5.33
2022-10-19T01:01:58.999Z,5.20
2022-10-19T01:04:31.630Z,6.95
2022-10-19T01:07:04.485Z,4.80
2022-10-19T01:09:36.261Z,5.45
2022-10-19T01:12:12.816Z,5.50
2022-10-19T01:14:50.232Z,5.45
2022-10-19T01:17:25.462Z,6.45
2022-10-19T01:20:23.691Z,7.12
2022-10-19T01:23:03.217Z,6.47
2022-10-19T01:25:41.696Z,6.08
2022-10-19T01:28:22.687Z,6.20
2022-10-19T01:30:57.118Z,5.53
2022-10-19T01:33:35.020Z,5.45
2022-10-19T01:36:12.501Z,7.42
2022-10-19T01:38:47.184Z,8.00
2022-10-19T01:41:21.446Z,6.45
2022-10-19T01:43:56.389Z,5.70
2022-10-19T01:46:31.002Z,6.35
2022-10-19T01:49:05.122Z,5.67
2022-10-19T01:51:39.566Z,5.55
2022-10-19T01:54:14.506Z,5.80
2022-10-19T01:56:48.222Z,6.35
2022-10-19T01:59:22.222Z,6.05
2022-10-19T02:01:55.206Z,5.12
2022-10-19T02:04:27.623Z,5.40
2022-10-19T02:06:59.752Z,5.15
2022-10-19T02:09:31.544Z,5.90
2022-10-19T02:12:05.816Z,5.80
2022-10-19T02:14:40.401Z,5.62
2022-10-19T02:17:14.697Z,4.47
2022-10-19T02:19:46.324Z,9.20
2022-10-19T02:22:17.642Z,5.60
2022-10-19T02:24:48.915Z,5.05
2022-10-19T02:27:20.220Z,5.50
2022-10-19T02:29:52.006Z,6.12
2022-10-19T02:32:23.645Z,4.28
2022-10-19T02:34:55.561Z,6.37
2022-10-19T02:37:27.075Z,5.25
2022-10-19T02:39:58.626Z,4.60
2022-10-19T02:42:33.942Z,5.37
2022-10-19T02:45:09.440Z,4.97
2022-10-19T02:47:45.009Z,5.60
2022-10-19T02:50:17.617Z,5.75
2022-10-19T02:52:48.752Z,5.20
2022-10-19T02:55:20.203Z,5.75
2022-10-19T02:57:51.306Z,5.05
2022-10-19T03:00:22.747Z,5.65
2022-10-19T03:02:53.883Z,6.05
2022-10-19T03:05:25.121Z,5.15
2022-10-19T03:07:56.584Z,5.62
2022-10-19T03:10:28.890Z,6.40
2022-10-19T03:13:00.471Z,5.20
2022-10-19T03:15:31.877Z,5.30
2022-10-19T03:18:03.111Z,5.80
2022-10-19T03:20:34.517Z,5.30
2022-10-19T03:23:05.755Z,4.62
2022-10-19T03:25:36.906Z,6.40
2022-10-19T03:28:08.206Z,5.00
2022-10-19T03:30:39.588Z,5.65
2022-10-19T03:33:10.893Z,6.20
2022-10-19T03:35:42.225Z,5.25
2022-10-19T03:38:13.672Z,6.58
2022-10-19T03:40:45.370Z,7.15
2022-10-19T03:43:16.697Z,7.10
2022-10-19T03:45:48.720Z,6.37
2022-10-19T03:48:19.936Z,8.38
2022-10-19T03:50:53.348Z,6.65
2022-10-19T03:53:24.575Z,6.37
2022-10-19T03:56:01.777Z,5.53
2022-10-19T03:58:35.679Z,6.62
2022-10-19T04:01:11.116Z,6.20
2022-10-19T04:03:42.400Z,6.40
2022-10-19T04:06:18.344Z,5.80
2022-10-19T04:08:51.521Z,5.58
2022-10-19T04:11:25.841Z,6.33
2022-10-19T04:13:59.188Z,5.45
2022-10-19T04:16:32.074Z,8.23
2022-10-19T04:19:03.732Z,6.53
2022-10-19T04:21:37.150Z,5.37
2022-10-19T04:24:11.005Z,5.80
2022-10-19T04:26:44.953Z,7.33
2022-10-19T04:29:17.453Z,8.03
2022-10-19T04:31:51.652Z,6.12
2022-10-19T04:34:23.101Z,6.47
2022-10-19T04:36:57.645Z,5.87
2022-10-19T04:39:29.148Z,5.33
2022-10-19T04:42:01.570Z,7.62
2022-10-19T04:44:32.878Z,6.90
2022-10-19T04:47:04.153Z,5.95
2022-10-19T04:49:35.512Z,6.55
2022-10-19T04:52:06.947Z,6.80
2022-10-19T04:54:38.341Z,5.53
2022-10-19T04:57:09.614Z,6.55
2022-10-19T04:59:41.001Z,5.53
2022-10-19T05:02:12.996Z,7.08
2022-10-19T05:04:45.191Z,5.55
2022-10-19T05:07:16.958Z,5.05
2022-10-19T05:09:48.451Z,6.22
2022-10-19T05:12:19.781Z,6.17
2022-10-19T05:14:51.283Z,6.22
2022-10-19T05:17:22.424Z,6.75
2022-10-19T05:19:53.722Z,5.55
2022-10-19T05:22:25.257Z,5.85
2022-10-19T05:24:58.164Z,5.50
2022-10-19T05:27:29.960Z,11.63
2022-10-19T05:30:01.309Z,8.08
2022-10-19T05:32:32.689Z,5.85
2022-10-19T05:35:04.472Z,6.65
2022-10-19T05:37:36.165Z,6.10
2022-10-19T05:40:12.470Z,5.70
2022-10-19T05:42:43.773Z,6.62
2022-10-19T05:45:15.093Z,6.37
2022-10-19T05:47:46.355Z,7.25
2022-10-19T05:50:17.904Z,6.67
2022-10-19T05:52:49.366Z,6.00
2022-10-19T05:55:20.700Z,7.15
2022-10-19T05:57:52.349Z,7.12
2022-10-19T06:00:23.510Z,6.90
2022-10-19T06:02:58.917Z,7.45
2022-10-19T06:05:27.672Z,6.72
2022-10-19T06:07:58.949Z,12.20
2022-10-19T06:10:30.272Z,13.18
2022-10-19T06:13:01.619Z,8.75
2022-10-19T06:15:36.484Z,8.40
2022-10-19T06:18:08.932Z,8.60
2022-10-19T06:20:42.425Z,6.83
2022-10-19T06:23:13.644Z,8.88
2022-10-19T06:25:45.444Z,10.70
2022-10-19T06:28:16.760Z,9.75
2022-10-19T06:30:48.174Z,14.10
2022-10-19T06:33:19.515Z,11.60
2022-10-19T06:35:50.899Z,11.95
2022-10-19T06:38:22.293Z,11.43
2022-10-19T06:40:53.610Z,11.65
2022-10-19T06:43:24.811Z,11.68
2022-10-19T06:45:55.745Z,11.53
2022-10-19T06:48:27.134Z,10.45
2022-10-19T06:50:59.158Z,10.85
2022-10-19T06:53:31.321Z,11.25
2022-10-19T06:56:04.153Z,10.35
2022-10-19T06:58:37.802Z,11.60
2022-10-19T07:01:10.646Z,12.37
2022-10-19T07:03:43.193Z,13.30
2022-10-19T07:06:15.257Z,12.55
2022-10-19T07:08:47.053Z,12.65
2022-10-19T07:11:20.259Z,11.78
2022-10-19T07:13:53.117Z,11.45
2022-10-19T07:16:24.416Z,12.05
2022-10-19T07:18:56.544Z,10.55
2022-10-19T07:21:27.892Z,10.15
2022-10-19T07:23:59.175Z,9.03
2022-10-19T07:26:31.271Z,8.58
2022-10-19T07:29:03.250Z,9.33
2022-10-19T07:31:34.829Z,8.30
2022-10-19T07:34:07.175Z,8.28
2022-10-19T07:36:40.100Z,8.25
2022-10-19T07:39:13.084Z,6.92
2022-10-19T07:41:44.957Z,6.45
2022-10-19T07:44:17.186Z,6.30
2022-10-19T07:46:48.444Z,5.62
2022-10-19T07:49:20.773Z,7.03
2022-10-19T07:51:53.953Z,7.42
2022-10-19T07:54:27.298Z,7.87
2022-10-19T07:56:58.666Z,8.15
2022-10-19T07:59:30.229Z,8.05
2022-10-19T08:02:03.100Z,11.63
2022-10-19T08:07:09.622Z,9.43
2022-10-19T08:09:52.864Z,10.40
2022-10-19T08:12:15.327Z,10.18
2022-10-19T08:14:48.176Z,9.10
2022-10-19T08:17:19.646Z,9.20
2022-10-19T08:19:50.770Z,11.43
2022-10-19T08:22:22.277Z,9.68
2022-10-19T08:24:53.505Z,9.95
2022-10-19T08:27:25.282Z,11.43
2022-10-19T08:29:56.544Z,11.18
2022-10-19T08:32:27.813Z,12.95
2022-10-19T08:34:59.085Z,12.25
2022-10-19T08:37:44.124Z,11.22
2022-10-19T08:40:03.351Z,11.05
2022-10-19T08:42:40.842Z,12.43
2022-10-19T08:48:32.924Z,11.55
2022-10-19T08:51:08.077Z,13.00
2022-10-19T08:53:43.787Z,11.70
2022-10-19T08:56:49.344Z,11.12
2022-10-19T08:59:09.792Z,10.53
2022-10-19T09:01:47.000Z,10.90
2022-10-19T09:04:23.557Z,11.30
2022-10-19T09:07:19.873Z,10.48
2022-10-19T09:09:54.595Z,10.05
2022-10-19T09:12:38.297Z,10.00
2022-10-19T09:15:14.639Z,10.98
2022-10-19T09:17:47.403Z,9.65
2022-10-19T09:20:30.177Z,8.55
2022-10-19T09:23:09.816Z,11.80
2022-10-19T09:25:59.720Z,9.10
2022-10-19T09:28:40.888Z,7.90
2022-10-19T09:31:16.669Z,8.17
2022-10-19T09:33:52.084Z,7.30
2022-10-19T09:36:33.237Z,8.35
2022-10-19T09:38:58.484Z,8.55
2022-10-19T09:41:30.776Z,9.55
2022-10-19T09:44:02.437Z,9.00
2022-10-19T09:46:42.552Z,7.75
2022-10-19T09:49:13.741Z,8.28
2022-10-19T09:51:51.767Z,8.00
2022-10-19T09:54:29.365Z,8.38
2022-10-19T09:57:00.779Z,7.42
2022-10-19T09:59:35.773Z,8.88
2022-10-19T10:02:16.871Z,9.10
2022-10-19T10:04:50.602Z,6.95
2022-10-19T10:07:23.403Z,7.00
2022-10-19T10:09:55.031Z,9.15
2022-10-19T10:12:26.455Z,7.55
2022-10-19T10:14:57.877Z,7.83
2022-10-19T10:17:31.919Z,9.43
2022-10-19T10:20:21.541Z,8.70
2022-10-19T10:22:59.320Z,9.25
2022-10-19T10:25:32.856Z,8.10
2022-10-19T10:28:07.182Z,7.83
2022-10-19T10:30:39.015Z,10.13
2022-10-19T10:33:27.019Z,8.43
2022-10-19T10:35:53.114Z,9.25
2022-10-19T10:38:27.786Z,9.25
2022-10-19T10:41:02.764Z,8.43
2022-10-19T10:43:36.481Z,7.78
2022-10-19T10:46:10.485Z,8.30
2022-10-19T10:48:45.194Z,8.68
2022-10-19T10:51:24.573Z,8.53
2022-10-19T10:54:10.986Z,9.73
2022-10-19T10:56:47.340Z,8.65
2022-10-19T10:59:21.744Z,8.15
2022-10-19T11:01:57.522Z,8.60
2022-10-19T11:04:31.839Z,9.50
2022-10-19T11:07:05.299Z,9.95
2022-10-19T11:09:39.626Z,10.38
2022-10-19T11:12:14.518Z,8.80
2022-10-19T11:14:50.874Z,9.98
2022-10-19T11:17:26.179Z,12.82
2022-10-19T11:19:57.548Z,8.33
2022-10-19T11:22:31.904Z,11.00
2022-10-19T11:25:16.327Z,9.55
2022-10-19T11:27:51.063Z,8.93
2022-10-19T11:30:24.007Z,10.30
2022-10-19T11:33:01.819Z,10.58
2022-10-19T11:35:47.538Z,10.90
2022-10-19T11:38:31.108Z,8.85
2022-10-19T11:41:23.606Z,8.88
2022-10-19T11:43:44.671Z,9.03
2022-10-19T11:46:19.038Z,9.58
2022-10-19T11:48:59.674Z,9.30
2022-10-19T11:51:36.289Z,8.63
2022-10-19T11:54:27.475Z,9.95
2022-10-19T11:57:04.770Z,10.50
2022-10-19T11:59:41.380Z,10.15
2022-10-19T12:02:23.243Z,9.68
2022-10-19T12:04:58.372Z,9.85
2022-10-19T12:07:38.187Z,12.90
2022-10-19T12:10:21.679Z,11.48
2022-10-19T12:12:55.145Z,11.97
2022-10-19T12:15:30.573Z,22.58
2022-10-19T12:18:05.886Z,14.23
2022-10-19T12:20:40.840Z,10.82
2022-10-19T12:23:26.530Z,10.70
2022-10-19T12:26:01.836Z,12.63
2022-10-19T12:28:36.371Z,11.93
2022-10-19T12:31:10.618Z,12.25
2022-10-19T12:33:47.418Z,13.15
2022-10-19T12:36:25.329Z,12.23
2022-10-19T12:39:02.695Z,12.95
2022-10-19T12:41:37.657Z,12.65
2022-10-19T12:44:38.023Z,13.22
2022-10-19T12:47:15.636Z,12.45
2022-10-19T12:49:49.647Z,12.20
2022-10-19T12:52:42.988Z,11.95
2022-10-19T12:55:33.677Z,11.48
2022-10-19T12:58:07.622Z,13.00
2022-10-19T13:00:39.691Z,11.30
2022-10-19T13:03:16.805Z,11.85
2022-10-19T13:06:00.104Z,12.05
2022-10-19T13:08:35.457Z,11.38
2022-10-19T13:11:10.409Z,11.60
2022-10-19T13:13:58.516Z,11.70
2022-10-19T13:17:01.764Z,11.95
2022-10-19T13:19:33.566Z,10.43
2022-10-19T13:22:32.991Z,10.53
2022-10-19T13:25:38.968Z,11.93
2022-10-19T13:28:37.784Z,12.00
2022-10-19T13:31:24.741Z,10.43
2022-10-19T13:33:57.689Z,12.40
2022-10-19T13:36:29.711Z,11.60
2022-10-19T13:39:17.742Z,10.98
2022-10-19T13:41:54.642Z,11.93
2022-10-19T13:44:36.584Z,11.45
2022-10-19T13:47:32.983Z,11.40
2022-10-19T13:50:19.964Z,12.75
2022-10-19T13:53:22.149Z,10.58
2022-10-19T13:56:20.073Z,12.80
2022-10-19T13:59:15.059Z,11.45
2022-10-19T14:01:56.385Z,11.90
2022-10-19T14:04:33.758Z,12.03
2022-10-19T14:07:09.211Z,11.88
2022-10-19T14:09:57.812Z,10.98
2022-10-19T14:12:31.240Z,14.15
2022-10-19T14:15:04.125Z,11.28
2022-10-19T14:17:38.633Z,12.10
2022-10-19T14:20:27.252Z,12.35
2022-10-19T14:22:58.858Z,14.00
2022-10-19T14:25:32.731Z,10.82
2022-10-19T14:28:07.330Z,12.07
2022-10-19T14:30:38.658Z,12.28
2022-10-19T14:33:14.025Z,21.40
2022-10-19T14:35:48.462Z,11.80
2022-10-19T14:38:23.044Z,12.70
2022-10-19T14:40:56.027Z,14.13
2022-10-19T14:43:29.372Z,12.03
2022-10-19T14:46:14.192Z,12.73
2022-10-19T14:48:48.502Z,12.00
2022-10-19T14:51:30.041Z,13.28
2022-10-19T14:54:04.935Z,10.93
2022-10-19T14:56:39.287Z,11.90
2022-10-19T14:59:18.723Z,11.45
2022-10-19T15:01:52.604Z,11.43
2022-10-19T15:04:27.001Z,11.28
2022-10-19T15:06:59.393Z,12.23
2022-10-19T15:09:37.408Z,14.13
2022-10-19T15:12:09.511Z,11.53
2022-10-19T15:14:41.282Z,11.78
2022-10-19T15:17:26.218Z,12.88
2022-10-19T15:20:00.913Z,12.82
2022-10-19T15:22:41.155Z,12.78
2022-10-19T15:25:31.070Z,11.75
2022-10-19T15:28:23.980Z,11.38
2022-10-19T15:31:03.978Z,13.25
2022-10-19T15:33:40.239Z,12.50
2022-10-19T15:36:15.682Z,12.47
2022-10-19T15:38:48.492Z,10.85
2022-10-19T15:41:23.409Z,13.08
2022-10-19T15:43:58.935Z,11.65
2022-10-19T15:46:34.349Z,12.65
2022-10-19T15:49:44.270Z,12.40
2022-10-19T15:52:17.707Z,13.43
2022-10-19T15:54:50.207Z,11.60
2022-10-19T15:57:28.569Z,13.45
2022-10-19T16:00:02.138Z,11.97
2022-10-19T16:02:33.394Z,11.35
2022-10-19T16:07:39.341Z,19.87
2022-10-19T16:10:16.345Z,14.85
2022-10-19T16:12:47.609Z,10.70
2022-10-19T16:15:22.665Z,10.90
2022-10-19T16:17:55.420Z,13.22
2022-10-19T16:20:29.097Z,15.20
2022-10-19T16:23:00.704Z,14.07
2022-10-19T16:25:31.929Z,17.00
2022-10-19T16:28:03.266Z,21.30
2022-10-19T16:30:34.603Z,23.73
2022-10-19T16:33:05.903Z,25.62
2022-10-19T16:35:38.753Z,25.82
2022-10-19T16:38:10.199Z,23.95
2022-10-19T16:40:41.609Z,28.98
2022-10-19T16:43:12.949Z,18.37
2022-10-19T16:45:45.254Z,17.05
2022-10-19T16:48:18.930Z,15.58
2022-10-19T16:50:55.381Z,18.57
2022-10-19T16:53:27.300Z,16.70
2022-10-19T16:56:01.875Z,18.48
2022-10-19T16:58:33.150Z,49.70
2022-10-19T17:01:09.165Z,76.97
2022-10-19T17:03:40.962Z,68.97
2022-10-19T17:06:12.977Z,59.35
2022-10-19T17:09:23.275Z,69.40
2022-10-19T17:11:20.008Z,53.05
2022-10-19T17:13:53.469Z,30.85
2022-10-19T17:16:27.193Z,21.45
2022-10-19T17:19:00.243Z,16.65
2022-10-19T17:21:33.905Z,15.35
2022-10-19T17:24:06.244Z,14.35
2022-10-19T17:26:39.644Z,18.02
2022-10-19T17:29:12.254Z,19.20
2022-10-19T17:31:44.310Z,17.42
2022-10-19T17:34:15.729Z,16.27
2022-10-19T17:36:48.125Z,16.15
2022-10-19T17:39:25.628Z,15.05
2022-10-19T17:41:55.929Z,14.75
2022-10-19T17:44:28.968Z,15.68
2022-10-19T17:47:01.704Z,17.15
2022-10-19T17:49:33.193Z,16.17
2022-10-19T17:52:04.434Z,16.77
2022-10-19T17:54:43.597Z,16.25
2022-10-19T17:57:08.590Z,16.45
2022-10-19T17:59:52.037Z,16.32
2022-10-19T18:02:12.687Z,15.80
2022-10-19T18:04:43.988Z,14.63
2022-10-19T18:07:15.245Z,16.97
2022-10-19T18:09:46.775Z,16.70
2022-10-19T18:12:18.102Z,16.50
2022-10-19T18:14:49.286Z,17.77
2022-10-19T18:17:24.046Z,16.97
2022-10-19T18:19:53.552Z,18.45
2022-10-19T18:22:24.799Z,19.30
2022-10-19T18:24:56.018Z,17.37
2022-10-19T18:27:27.561Z,18.42
2022-10-19T18:29:58.860Z,18.82
2022-10-19T18:32:31.887Z,16.95
2022-10-19T18:35:03.431Z,18.02
2022-10-19T18:37:34.589Z,17.12
2022-10-19T18:40:06.538Z,19.27
2022-10-19T18:42:37.915Z,22.55
2022-10-19T18:45:11.607Z,19.65
2022-10-19T18:47:42.979Z,25.23
2022-10-19T18:52:47.235Z,19.20
2022-10-19T18:55:18.681Z,19.82
2022-10-19T18:57:50.032Z,20.80
2022-10-19T19:00:21.772Z,17.95
2022-10-19T19:02:57.047Z,20.20
2022-10-19T19:05:29.395Z,21.25
2022-10-19T19:08:00.710Z,18.17
2022-10-19T19:10:31.914Z,17.42
2022-10-19T19:13:03.200Z,17.55
2022-10-19T19:15:34.556Z,17.15
2022-10-19T19:18:05.874Z,16.23
2022-10-19T19:20:38.714Z,15.98
2022-10-19T19:23:10.046Z,14.55
2022-10-19T19:25:42.466Z,14.63
2022-10-19T19:28:14.141Z,16.07
2022-10-19T19:30:46.564Z,15.28
2022-10-19T19:33:17.674Z,16.12
2022-10-19T19:35:52.188Z,14.87
2022-10-19T19:38:23.827Z,17.90
2022-10-19T19:40:55.066Z,18.00
2022-10-19T19:43:26.874Z,17.80
2022-10-19T19:46:03.116Z,16.37
2022-10-19T19:48:33.104Z,17.75
2022-10-19T19:51:04.530Z,16.30
2022-10-19T19:53:35.994Z,16.50
2022-10-19T19:56:09.426Z,18.00
2022-10-19T19:58:42.165Z,19.75
2022-10-19T20:01:15.938Z,15.72
2022-10-19T20:03:48.447Z,17.85
2022-10-19T20:06:24.991Z,18.52
2022-10-19T20:08:54.754Z,16.37
2022-10-19T20:11:28.022Z,17.32
2022-10-19T20:13:59.675Z,16.37
2022-10-19T20:16:33.269Z,18.62
2022-10-19T20:19:07.864Z,17.87
2022-10-19T20:21:39.932Z,16.80
2022-10-19T20:24:13.125Z,15.55
2022-10-19T20:26:47.265Z,16.23
2022-10-19T20:29:18.691Z,15.88
2022-10-19T20:31:50.435Z,15.50
2022-10-19T20:34:24.052Z,15.88
2022-10-19T20:36:55.320Z,15.90
2022-10-19T20:39:27.207Z,16.42
2022-10-19T20:42:05.751Z,16.45
2022-10-19T20:44:37.622Z,19.30
2022-10-19T20:47:09.256Z,16.77
2022-10-19T20:49:40.779Z,16.00
2022-10-19T20:52:12.253Z,16.05
2022-10-19T20:54:43.671Z,18.12
2022-10-19T20:57:14.768Z,20.25
2022-10-19T20:59:46.004Z,19.07
2022-10-19T21:02:17.315Z,18.92
2022-10-19T21:04:48.603Z,17.37
2022-10-19T21:07:19.993Z,18.23
2022-10-19T21:09:51.374Z,17.02
2022-10-19T21:12:22.712Z,18.42
2022-10-19T21:14:54.053Z,16.25
2022-10-19T21:17:25.514Z,17.07
2022-10-19T21:19:57.379Z,18.60
2022-10-19T21:22:28.964Z,15.30
2022-10-19T21:25:00.227Z,15.30
2022-10-19T21:27:31.803Z,16.87
2022-10-19T21:30:03.019Z,15.50
2022-10-19T21:32:34.984Z,19.15
2022-10-19T21:35:07.650Z,16.30
2022-10-19T21:37:38.961Z,15.53
2022-10-19T21:40:12.161Z,13.98
2022-10-19T21:42:45.022Z,15.13
2022-10-19T21:45:29.994Z,14.35
2022-10-19T21:47:49.593Z,15.13
2022-10-19T21:50:20.915Z,14.98
2022-10-19T21:52:52.138Z,14.90
2022-10-19T21:55:25.217Z,14.10
2022-10-19T21:57:56.404Z,13.40
2022-10-19T22:00:27.968Z,15.50
2022-10-19T22:02:59.212Z,15.48
2022-10-19T22:05:33.368Z,14.30
2022-10-19T22:08:04.851Z,16.02
2022-10-19T22:10:37.666Z,16.10
2022-10-19T22:13:09.677Z,14.28
2022-10-19T22:15:43.210Z,14.20
2022-10-19T22:18:14.612Z,17.70
2022-10-19T22:20:46.109Z,15.58
2022-10-19T22:23:17.421Z,16.73
2022-10-19T22:25:48.897Z,17.05
2022-10-19T22:28:20.164Z,15.90
2022-10-19T22:30:55.679Z,15.72
2022-10-19T22:33:27.440Z,17.50
2022-10-19T22:36:00.364Z,15.48
2022-10-19T22:38:31.926Z,16.32
2022-10-19T22:41:56.775Z,18.42
2022-10-19T22:44:28.159Z,19.62
2022-10-19T22:47:00.255Z,18.02
2022-10-19T22:49:32.865Z,18.57
2022-10-19T22:52:04.202Z,18.65
2022-10-19T22:54:35.564Z,19.15
2022-10-19T22:57:08.017Z,18.37
2022-10-19T22:59:39.479Z,18.25
2022-10-19T23:02:10.855Z,18.52
2022-10-19T23:04:42.220Z,18.00
2022-10-19T23:07:13.573Z,17.80
2022-10-19T23:12:15.352Z,16.12
2022-10-19T23:14:46.961Z,17.67
2022-10-19T23:17:18.358Z,18.67
2022-10-19T23:19:49.759Z,20.27
2022-10-19T23:22:21.594Z,17.32
2022-10-19T23:24:53.307Z,16.95
2022-10-19T23:27:24.802Z,16.73
2022-10-19T23:29:56.174Z,17.52
2022-10-19T23:32:27.507Z,19.25
2022-10-19T23:34:59.007Z,16.93
2022-10-19T23:37:30.380Z,16.67
2022-10-19T23:40:01.819Z,16.90
2022-10-19T23:42:33.210Z,15.23
2022-10-19T23:45:04.874Z,20.10
2022-10-19T23:47:36.536Z,15.85
2022-10-19T23:50:09.516Z,17.62
2022-10-19T23:52:40.862Z,16.95
2022-10-19T23:55:12.328Z,16.70
2022-10-19T23:57:43.671Z,16.70
